Cashiers, NC

1:10 PM EDT on June 28, 2017 (GMT -0400)
Cashiers Permit Center | | Change Station

Elev 3537 ft 35.11 °N, 83.10 °W | Updated 10 seconds ago

Partly Cloudy
Partly Cloudy
71.5 °F
Feels Like 77 °F
N
4.0
Wind Variable Wind from NE

Today
High -- | Low -- °F
--% Chance of Precip.
Yesterday
High -- | Low -- °F
Precip. -- in
Pressure 30.23 in
Visibility 10.0 miles
Clouds Scattered Clouds 5000 ft
Scattered Clouds 6000 ft
Heat Index 77 °F
Dew Point 54 °F
Humidity 54%
Rainfall 0.00 in
Snow Depth Not available.
6:20 AM 8:50 PM
Waxing Crescent, 27% visible
METAR K1A5 281645Z AUTO 14005KT 10SM SCT050 SCT060 26/13 A3023 RMK AO2 T02570129
Pressure 30.23 in
Visibility 10.0 miles
Clouds Scattered Clouds 5000 ft
Scattered Clouds 6000 ft
Heat Index 77 °F
Dew Point 54 °F
Humidity 54%
Rainfall 0.00 in
Snow Depth Not available.
6:20 AM 8:50 PM
Waxing Crescent, 27% visible
METAR K1A5 281645Z AUTO 14005KT 10SM SCT050 SCT060 26/13 A3023 RMK AO2 T02570129

Get Severe Weather Alerts

Thanks for signing up!

Be on the lookout for a verification email in your inbox.

You'll start receiving the daily forecast at 6 AM.

×

10-Day Weather Forecast

Almanac

Astronomy

Jun. 28, 2017 Rise Set
Actual Time
Civil Twilight
Nautical Twilight
Astronomical Twilight
Moon
Length of Visible Light
Length of Day
Tomorrow will be .
, % of the Moon is Illuminated

Today's Extremes

State Highs State Lows

Community

WunderPhotos

Category 6

Welcome to Category 6. This is the collective home for Weather Underground's featured writeups by Dr. Jeff Masters (right), Bob Henson (left), Chris Burt, and other regular contributors.

Nearby

Air Quality

  Air Quality AQ Index Pollutant
Not available.

Snow Depth

Station Depth Elevation

Earthquake Activity

City Distance Mag. Time & Date
Minimum magnitude displayed is 2.5.

Coastal Water Temperatures

Place Temperature

Stations

Nearby Weather Stations

Station Location Temp. Windchill Dew Point Humidity Wind Precip. Elev Updated Type
                   

Watches & Warnings

There are currently no watches in effect.